Terminal Aerodrome Forecast
Issued by NWS

Home | Current Version | Previous Version | Text Only | Print | Product List | Glossary On
Versions: 1 2 3 4 5 6 7 8 9 10 11 12
000
FTUS43 KMQT 301700
TAFIWD
TAF
KIWD 301735Z 3018/3118 29008KT P6SM SCT060
     FM302200 29007KT P6SM VCSH BKN060
     FM310500 25003KT P6SM SCT070
     FM311150 30008KT P6SM SKC
      AMD NOT SKED=

USA.gov is the U.S. government's official web portal to all federal, state and local government web resources and services.